sensor_id;sensor_type;location;lat;lon;timestamp;temperature;humidity
27266;DHT22;14766;51.380;13.762;2022-10-16T00:01:18;19.00;67.30
27266;DHT22;14766;51.380;13.762;2022-10-16T00:03:45;19.00;67.20
27266;DHT22;14766;51.380;13.762;2022-10-16T00:06:14;19.00;67.20
27266;DHT22;14766;51.380;13.762;2022-10-16T00:08:43;19.00;67.20
27266;DHT22;14766;51.380;13.762;2022-10-16T00:11:12;19.00;67.30
27266;DHT22;14766;51.380;13.762;2022-10-16T00:13:41;18.90;67.40
27266;DHT22;14766;51.380;13.762;2022-10-16T00:16:10;18.90;67.50
27266;DHT22;14766;51.380;13.762;2022-10-16T00:18:37;18.90;67.70
27266;DHT22;14766;51.380;13.762;2022-10-16T00:21:06;18.90;68.10
27266;DHT22;14766;51.380;13.762;2022-10-16T00:23:34;18.90;68.30
27266;DHT22;14766;51.380;13.762;2022-10-16T00:26:05;18.90;68.40
27266;DHT22;14766;51.380;13.762;2022-10-16T00:28:33;18.90;68.60
27266;DHT22;14766;51.380;13.762;2022-10-16T00:31:10;18.90;68.60
27266;DHT22;14766;51.380;13.762;2022-10-16T00:33:39;18.90;69.00
27266;DHT22;14766;51.380;13.762;2022-10-16T00:36:07;18.90;68.90
27266;DHT22;14766;51.380;13.762;2022-10-16T00:38:36;18.90;68.90
27266;DHT22;14766;51.380;13.762;2022-10-16T00:41:11;18.90;68.90
27266;DHT22;14766;51.380;13.762;2022-10-16T00:46:23;18.90;68.90
27266;DHT22;14766;51.380;13.762;2022-10-16T00:51:25;18.90;69.00
27266;DHT22;14766;51.380;13.762;2022-10-16T00:53:54;18.90;68.90
27266;DHT22;14766;51.380;13.762;2022-10-16T00:56:22;18.90;69.10
27266;DHT22;14766;51.380;13.762;2022-10-16T00:58:49;18.90;68.90
27266;DHT22;14766;51.380;13.762;2022-10-16T01:01:16;18.90;69.10
27266;DHT22;14766;51.380;13.762;2022-10-16T01:03:44;18.90;68.90
27266;DHT22;14766;51.380;13.762;2022-10-16T01:06:28;18.90;68.90
27266;DHT22;14766;51.380;13.762;2022-10-16T01:14:53;18.90;69.00
27266;DHT22;14766;51.380;13.762;2022-10-16T01:20:08;18.80;69.00
27266;DHT22;14766;51.380;13.762;2022-10-16T01:28:11;18.80;69.40
27266;DHT22;14766;51.380;13.762;2022-10-16T01:30:40;18.80;69.60
27266;DHT22;14766;51.380;13.762;2022-10-16T01:33:20;18.80;69.60
27266;DHT22;14766;51.380;13.762;2022-10-16T01:35:52;18.80;69.70
27266;DHT22;14766;51.380;13.762;2022-10-16T01:38:41;18.80;70.00
27266;DHT22;14766;51.380;13.762;2022-10-16T01:41:30;18.80;70.00
27266;DHT22;14766;51.380;13.762;2022-10-16T01:44:06;18.80;70.10
27266;DHT22;14766;51.380;13.762;2022-10-16T01:46:37;18.90;71.00
27266;DHT22;14766;51.380;13.762;2022-10-16T01:49:06;18.90;70.10
27266;DHT22;14766;51.380;13.762;2022-10-16T01:51:35;18.90;70.00
27266;DHT22;14766;51.380;13.762;2022-10-16T01:54:05;18.90;70.00
27266;DHT22;14766;51.380;13.762;2022-10-16T01:56:34;18.90;69.90
27266;DHT22;14766;51.380;13.762;2022-10-16T01:59:14;19.00;69.90
27266;DHT22;14766;51.380;13.762;2022-10-16T02:01:45;19.00;69.90
27266;DHT22;14766;51.380;13.762;2022-10-16T02:04:19;19.00;69.80
27266;DHT22;14766;51.380;13.762;2022-10-16T02:06:47;19.00;69.60
27266;DHT22;14766;51.380;13.762;2022-10-16T02:09:14;19.10;69.60
27266;DHT22;14766;51.380;13.762;2022-10-16T02:11:44;19.10;69.60
27266;DHT22;14766;51.380;13.762;2022-10-16T02:14:11;19.10;69.50
27266;DHT22;14766;51.380;13.762;2022-10-16T02:16:42;19.10;69.40
27266;DHT22;14766;51.380;13.762;2022-10-16T02:19:13;19.10;69.40
27266;DHT22;14766;51.380;13.762;2022-10-16T02:21:59;19.10;69.40
27266;DHT22;14766;51.380;13.762;2022-10-16T02:24:40;19.10;69.40
27266;DHT22;14766;51.380;13.762;2022-10-16T02:30:19;19.10;69.30
27266;DHT22;14766;51.380;13.762;2022-10-16T02:32:49;19.10;69.20
27266;DHT22;14766;51.380;13.762;2022-10-16T02:35:19;19.10;69.10
27266;DHT22;14766;51.380;13.762;2022-10-16T02:37:47;19.10;69.30
27266;DHT22;14766;51.380;13.762;2022-10-16T02:40:17;19.10;69.20
27266;DHT22;14766;51.380;13.762;2022-10-16T02:42:51;19.10;69.10
27266;DHT22;14766;51.380;13.762;2022-10-16T02:45:20;19.20;69.20
27266;DHT22;14766;51.380;13.762;2022-10-16T02:47:48;19.20;69.20
27266;DHT22;14766;51.380;13.762;2022-10-16T02:50:16;19.20;69.10
27266;DHT22;14766;51.380;13.762;2022-10-16T02:52:42;19.10;69.00
27266;DHT22;14766;51.380;13.762;2022-10-16T02:55:09;19.20;69.00
27266;DHT22;14766;51.380;13.762;2022-10-16T02:57:36;19.20;69.00
27266;DHT22;14766;51.380;13.762;2022-10-16T03:00:05;19.20;69.00
27266;DHT22;14766;51.380;13.762;2022-10-16T03:02:32;19.10;68.90
27266;DHT22;14766;51.380;13.762;2022-10-16T03:04:59;19.20;68.90
27266;DHT22;14766;51.380;13.762;2022-10-16T03:07:26;19.10;68.90
27266;DHT22;14766;51.380;13.762;2022-10-16T03:09:53;19.10;68.80
27266;DHT22;14766;51.380;13.762;2022-10-16T03:12:21;19.10;68.80
27266;DHT22;14766;51.380;13.762;2022-10-16T03:14:49;19.10;68.80
27266;DHT22;14766;51.380;13.762;2022-10-16T03:17:17;19.10;68.90
27266;DHT22;14766;51.380;13.762;2022-10-16T03:19:44;19.10;69.00
27266;DHT22;14766;51.380;13.762;2022-10-16T03:22:11;19.10;69.00
27266;DHT22;14766;51.380;13.762;2022-10-16T03:24:38;19.10;69.10
27266;DHT22;14766;51.380;13.762;2022-10-16T03:27:07;19.10;69.10
27266;DHT22;14766;51.380;13.762;2022-10-16T03:29:34;19.00;69.00
27266;DHT22;14766;51.380;13.762;2022-10-16T03:32:01;19.10;69.10
27266;DHT22;14766;51.380;13.762;2022-10-16T03:34:28;19.10;69.10
27266;DHT22;14766;51.380;13.762;2022-10-16T03:36:55;19.10;69.00
27266;DHT22;14766;51.380;13.762;2022-10-16T03:39:22;19.00;69.00
27266;DHT22;14766;51.380;13.762;2022-10-16T03:41:49;19.00;69.00
27266;DHT22;14766;51.380;13.762;2022-10-16T03:44:16;19.00;69.00
27266;DHT22;14766;51.380;13.762;2022-10-16T03:46:43;19.00;69.00
27266;DHT22;14766;51.380;13.762;2022-10-16T03:49:10;19.00;69.10
27266;DHT22;14766;51.380;13.762;2022-10-16T03:51:37;19.00;69.10
27266;DHT22;14766;51.380;13.762;2022-10-16T03:54:04;19.00;69.10
27266;DHT22;14766;51.380;13.762;2022-10-16T03:56:31;19.00;69.20
27266;DHT22;14766;51.380;13.762;2022-10-16T03:58:58;18.90;69.30
27266;DHT22;14766;51.380;13.762;2022-10-16T04:01:25;18.90;69.20
27266;DHT22;14766;51.380;13.762;2022-10-16T04:03:52;18.90;69.20
27266;DHT22;14766;51.380;13.762;2022-10-16T04:06:19;18.90;69.30
27266;DHT22;14766;51.380;13.762;2022-10-16T04:08:46;18.90;69.40
27266;DHT22;14766;51.380;13.762;2022-10-16T04:11:13;18.90;69.30
27266;DHT22;14766;51.380;13.762;2022-10-16T04:13:40;18.90;69.30
27266;DHT22;14766;51.380;13.762;2022-10-16T04:16:08;18.90;69.40
27266;DHT22;14766;51.380;13.762;2022-10-16T04:18:35;18.90;69.40
27266;DHT22;14766;51.380;13.762;2022-10-16T04:21:06;18.90;69.60
27266;DHT22;14766;51.380;13.762;2022-10-16T04:23:33;18.90;69.60
27266;DHT22;14766;51.380;13.762;2022-10-16T04:26:00;18.90;69.60
27266;DHT22;14766;51.380;13.762;2022-10-16T04:28:27;18.90;69.60
27266;DHT22;14766;51.380;13.762;2022-10-16T04:30:55;18.90;69.60
27266;DHT22;14766;51.380;13.762;2022-10-16T04:33:23;18.80;69.50
27266;DHT22;14766;51.380;13.762;2022-10-16T04:36:01;18.80;69.50
27266;DHT22;14766;51.380;13.762;2022-10-16T04:38:29;18.90;69.60
27266;DHT22;14766;51.380;13.762;2022-10-16T04:40:56;18.80;69.60
27266;DHT22;14766;51.380;13.762;2022-10-16T04:43:23;18.80;69.60
27266;DHT22;14766;51.380;13.762;2022-10-16T04:45:50;18.80;69.60
27266;DHT22;14766;51.380;13.762;2022-10-16T04:48:21;18.80;69.70
27266;DHT22;14766;51.380;13.762;2022-10-16T04:50:48;18.80;69.60
27266;DHT22;14766;51.380;13.762;2022-10-16T04:53:21;18.80;69.60
27266;DHT22;14766;51.380;13.762;2022-10-16T04:55:48;18.80;69.70
27266;DHT22;14766;51.380;13.762;2022-10-16T04:58:15;18.80;69.60
27266;DHT22;14766;51.380;13.762;2022-10-16T05:00:44;18.80;69.60
27266;DHT22;14766;51.380;13.762;2022-10-16T05:03:10;18.80;69.60
27266;DHT22;14766;51.380;13.762;2022-10-16T05:05:45;18.80;69.80
27266;DHT22;14766;51.380;13.762;2022-10-16T05:08:14;18.80;69.70
27266;DHT22;14766;51.380;13.762;2022-10-16T05:10:42;18.80;69.60
27266;DHT22;14766;51.380;13.762;2022-10-16T05:13:10;18.80;69.60
27266;DHT22;14766;51.380;13.762;2022-10-16T05:15:37;18.80;69.70
27266;DHT22;14766;51.380;13.762;2022-10-16T05:18:04;18.80;69.60
27266;DHT22;14766;51.380;13.762;2022-10-16T05:20:32;18.80;69.60
27266;DHT22;14766;51.380;13.762;2022-10-16T05:22:59;18.80;69.60
27266;DHT22;14766;51.380;13.762;2022-10-16T05:25:27;18.80;69.70
27266;DHT22;14766;51.380;13.762;2022-10-16T05:27:54;18.80;69.70
27266;DHT22;14766;51.380;13.762;2022-10-16T05:30:21;18.80;69.80
27266;DHT22;14766;51.380;13.762;2022-10-16T05:32:50;18.80;69.80
27266;DHT22;14766;51.380;13.762;2022-10-16T05:35:18;18.80;69.80
27266;DHT22;14766;51.380;13.762;2022-10-16T05:37:45;18.80;69.80
27266;DHT22;14766;51.380;13.762;2022-10-16T05:40:13;18.80;69.70
27266;DHT22;14766;51.380;13.762;2022-10-16T05:42:41;18.70;69.70
27266;DHT22;14766;51.380;13.762;2022-10-16T05:45:11;18.80;69.70
27266;DHT22;14766;51.380;13.762;2022-10-16T05:47:39;18.70;69.70
27266;DHT22;14766;51.380;13.762;2022-10-16T05:50:06;18.70;69.70
27266;DHT22;14766;51.380;13.762;2022-10-16T05:52:33;18.70;69.80
27266;DHT22;14766;51.380;13.762;2022-10-16T05:55:01;18.80;69.90
27266;DHT22;14766;51.380;13.762;2022-10-16T05:57:28;18.70;69.90
27266;DHT22;14766;51.380;13.762;2022-10-16T05:59:56;18.80;69.90
27266;DHT22;14766;51.380;13.762;2022-10-16T06:02:23;18.70;69.80
27266;DHT22;14766;51.380;13.762;2022-10-16T06:04:52;18.80;70.00
27266;DHT22;14766;51.380;13.762;2022-10-16T06:07:23;18.80;70.00
27266;DHT22;14766;51.380;13.762;2022-10-16T06:09:51;18.80;70.00
27266;DHT22;14766;51.380;13.762;2022-10-16T06:12:19;18.80;70.00
27266;DHT22;14766;51.380;13.762;2022-10-16T06:14:47;18.80;69.90
27266;DHT22;14766;51.380;13.762;2022-10-16T06:17:14;18.90;70.00
27266;DHT22;14766;51.380;13.762;2022-10-16T06:19:41;18.90;70.10
27266;DHT22;14766;51.380;13.762;2022-10-16T06:22:08;18.90;70.10
27266;DHT22;14766;51.380;13.762;2022-10-16T06:24:35;19.00;70.00
27266;DHT22;14766;51.380;13.762;2022-10-16T06:27:03;19.00;69.80
27266;DHT22;14766;51.380;13.762;2022-10-16T06:29:31;19.10;69.80
27266;DHT22;14766;51.380;13.762;2022-10-16T06:31:58;19.10;69.70
27266;DHT22;14766;51.380;13.762;2022-10-16T06:34:25;19.10;69.50
27266;DHT22;14766;51.380;13.762;2022-10-16T06:36:52;19.20;69.30
27266;DHT22;14766;51.380;13.762;2022-10-16T06:39:19;19.20;69.60
27266;DHT22;14766;51.380;13.762;2022-10-16T06:41:46;19.30;69.90
27266;DHT22;14766;51.380;13.762;2022-10-16T06:44:14;19.40;71.30
27266;DHT22;14766;51.380;13.762;2022-10-16T06:46:42;19.70;72.70
27266;DHT22;14766;51.380;13.762;2022-10-16T06:49:09;20.10;72.90
27266;DHT22;14766;51.380;13.762;2022-10-16T06:51:36;20.60;72.70
27266;DHT22;14766;51.380;13.762;2022-10-16T06:54:09;21.10;71.90
27266;DHT22;14766;51.380;13.762;2022-10-16T06:56:36;21.60;70.70
27266;DHT22;14766;51.380;13.762;2022-10-16T06:59:04;22.10;67.90
27266;DHT22;14766;51.380;13.762;2022-10-16T07:01:31;22.40;66.20
27266;DHT22;14766;51.380;13.762;2022-10-16T07:04:00;22.70;63.90
27266;DHT22;14766;51.380;13.762;2022-10-16T07:06:32;22.80;62.40
27266;DHT22;14766;51.380;13.762;2022-10-16T07:09:06;22.80;62.00
27266;DHT22;14766;51.380;13.762;2022-10-16T07:11:34;22.80;61.40
27266;DHT22;14766;51.380;13.762;2022-10-16T07:14:01;22.70;61.20
27266;DHT22;14766;51.380;13.762;2022-10-16T07:16:30;22.60;61.10
27266;DHT22;14766;51.380;13.762;2022-10-16T07:19:00;22.50;60.80
27266;DHT22;14766;51.380;13.762;2022-10-16T07:21:32;22.40;60.70
27266;DHT22;14766;51.380;13.762;2022-10-16T07:24:10;22.30;60.90
27266;DHT22;14766;51.380;13.762;2022-10-16T07:26:37;22.20;61.20
27266;DHT22;14766;51.380;13.762;2022-10-16T07:29:20;22.10;61.30
27266;DHT22;14766;51.380;13.762;2022-10-16T07:31:49;22.00;61.50
27266;DHT22;14766;51.380;13.762;2022-10-16T07:34:17;21.90;61.70
27266;DHT22;14766;51.380;13.762;2022-10-16T07:36:48;21.80;61.90
27266;DHT22;14766;51.380;13.762;2022-10-16T07:39:15;21.70;62.10
27266;DHT22;14766;51.380;13.762;2022-10-16T07:41:42;21.60;62.40
27266;DHT22;14766;51.380;13.762;2022-10-16T07:44:10;21.60;62.80
27266;DHT22;14766;51.380;13.762;2022-10-16T07:46:38;21.50;62.90
27266;DHT22;14766;51.380;13.762;2022-10-16T07:49:05;21.50;63.60
27266;DHT22;14766;51.380;13.762;2022-10-16T07:51:32;21.70;65.30
27266;DHT22;14766;51.380;13.762;2022-10-16T07:53:59;21.90;66.40
27266;DHT22;14766;51.380;13.762;2022-10-16T07:56:26;22.30;66.10
27266;DHT22;14766;51.380;13.762;2022-10-16T07:58:55;22.80;64.20
27266;DHT22;14766;51.380;13.762;2022-10-16T08:01:24;23.20;63.10
27266;DHT22;14766;51.380;13.762;2022-10-16T08:03:52;23.60;61.90
27266;DHT22;14766;51.380;13.762;2022-10-16T08:06:21;24.00;60.40
27266;DHT22;14766;51.380;13.762;2022-10-16T08:08:57;24.50;58.90
27266;DHT22;14766;51.380;13.762;2022-10-16T08:11:27;24.90;57.50
27266;DHT22;14766;51.380;13.762;2022-10-16T08:13:55;25.10;56.60
27266;DHT22;14766;51.380;13.762;2022-10-16T08:16:22;25.30;55.70
27266;DHT22;14766;51.380;13.762;2022-10-16T08:18:49;25.40;54.30
27266;DHT22;14766;51.380;13.762;2022-10-16T08:21:20;25.40;53.70
27266;DHT22;14766;51.380;13.762;2022-10-16T08:23:49;25.30;54.20
27266;DHT22;14766;51.380;13.762;2022-10-16T08:26:24;25.20;53.50
27266;DHT22;14766;51.380;13.762;2022-10-16T08:28:51;25.20;54.00
27266;DHT22;14766;51.380;13.762;2022-10-16T08:31:19;25.20;53.50
27266;DHT22;14766;51.380;13.762;2022-10-16T08:34:13;25.10;53.30
27266;DHT22;14766;51.380;13.762;2022-10-16T08:36:42;24.90;53.30
27266;DHT22;14766;51.380;13.762;2022-10-16T08:39:09;24.80;53.80
27266;DHT22;14766;51.380;13.762;2022-10-16T08:47:25;24.30;54.80
27266;DHT22;14766;51.380;13.762;2022-10-16T08:50:09;24.20;54.90
27266;DHT22;14766;51.380;13.762;2022-10-16T08:52:40;24.10;55.90
27266;DHT22;14766;51.380;13.762;2022-10-16T08:55:27;24.10;56.40
27266;DHT22;14766;51.380;13.762;2022-10-16T08:57:55;24.00;57.20
27266;DHT22;14766;51.380;13.762;2022-10-16T09:00:22;24.10;57.80
27266;DHT22;14766;51.380;13.762;2022-10-16T09:10:59;24.60;55.80
27266;DHT22;14766;51.380;13.762;2022-10-16T09:16:14;24.50;54.90
27266;DHT22;14766;51.380;13.762;2022-10-16T09:23:50;24.60;57.00
27266;DHT22;14766;51.380;13.762;2022-10-16T09:26:18;24.90;57.40
27266;DHT22;14766;51.380;13.762;2022-10-16T09:28:46;25.20;57.00
27266;DHT22;14766;51.380;13.762;2022-10-16T09:31:19;25.50;55.30
27266;DHT22;14766;51.380;13.762;2022-10-16T09:33:55;25.90;55.00
27266;DHT22;14766;51.380;13.762;2022-10-16T09:36:25;26.20;52.60
27266;DHT22;14766;51.380;13.762;2022-10-16T09:39:05;26.40;53.30
27266;DHT22;14766;51.380;13.762;2022-10-16T09:41:36;26.60;52.30
27266;DHT22;14766;51.380;13.762;2022-10-16T09:44:15;26.70;51.50
27266;DHT22;14766;51.380;13.762;2022-10-16T09:46:44;26.70;50.70
27266;DHT22;14766;51.380;13.762;2022-10-16T09:49:25;26.60;51.00
27266;DHT22;14766;51.380;13.762;2022-10-16T09:52:26;26.50;50.60
27266;DHT22;14766;51.380;13.762;2022-10-16T09:54:55;26.30;50.90
27266;DHT22;14766;51.380;13.762;2022-10-16T09:57:23;26.20;51.20
27266;DHT22;14766;51.380;13.762;2022-10-16T09:59:56;26.00;51.40
27266;DHT22;14766;51.380;13.762;2022-10-16T10:04:55;25.60;52.00
27266;DHT22;14766;51.380;13.762;2022-10-16T10:07:26;25.30;52.10
27266;DHT22;14766;51.380;13.762;2022-10-16T10:09:57;25.10;52.60
27266;DHT22;14766;51.380;13.762;2022-10-16T10:12:26;24.90;53.00
27266;DHT22;14766;51.380;13.762;2022-10-16T10:15:11;24.70;53.60
27266;DHT22;14766;51.380;13.762;2022-10-16T10:17:51;24.50;54.40
27266;DHT22;14766;51.380;13.762;2022-10-16T10:20:39;24.40;54.70
27266;DHT22;14766;51.380;13.762;2022-10-16T10:23:24;24.20;55.20
27266;DHT22;14766;51.380;13.762;2022-10-16T10:26:04;24.10;55.50
27266;DHT22;14766;51.380;13.762;2022-10-16T10:34:11;23.90;56.30
27266;DHT22;14766;51.380;13.762;2022-10-16T10:36:40;23.80;56.50
27266;DHT22;14766;51.380;13.762;2022-10-16T10:39:17;23.80;57.00
27266;DHT22;14766;51.380;13.762;2022-10-16T10:46:51;23.80;57.60
27266;DHT22;14766;51.380;13.762;2022-10-16T10:54:50;24.00;57.20
27266;DHT22;14766;51.380;13.762;2022-10-16T11:06:18;24.30;55.80
27266;DHT22;14766;51.380;13.762;2022-10-16T11:11:46;24.20;55.80
27266;DHT22;14766;51.380;13.762;2022-10-16T11:14:20;24.30;56.00
27266;DHT22;14766;51.380;13.762;2022-10-16T11:19:51;24.20;56.10
27266;DHT22;14766;51.380;13.762;2022-10-16T11:22:36;24.20;56.30
27266;DHT22;14766;51.380;13.762;2022-10-16T11:25:21;24.20;56.80
27266;DHT22;14766;51.380;13.762;2022-10-16T11:30:52;24.40;57.00
27266;DHT22;14766;51.380;13.762;2022-10-16T11:33:28;24.60;56.20
27266;DHT22;14766;51.380;13.762;2022-10-16T11:44:43;24.80;55.30
27266;DHT22;14766;51.380;13.762;2022-10-16T11:55:34;24.70;53.90
27266;DHT22;14766;51.380;13.762;2022-10-16T12:06:47;24.40;54.50
27266;DHT22;14766;51.380;13.762;2022-10-16T12:11:48;24.30;55.00
27266;DHT22;14766;51.380;13.762;2022-10-16T12:16:57;24.20;55.50
27266;DHT22;14766;51.380;13.762;2022-10-16T12:19:31;24.20;55.70
27266;DHT22;14766;51.380;13.762;2022-10-16T12:22:01;24.20;56.10
27266;DHT22;14766;51.380;13.762;2022-10-16T12:27:04;24.20;56.40
27266;DHT22;14766;51.380;13.762;2022-10-16T12:29:39;24.20;56.40
27266;DHT22;14766;51.380;13.762;2022-10-16T12:32:39;24.30;56.30
27266;DHT22;14766;51.380;13.762;2022-10-16T12:35:28;24.30;56.20
27266;DHT22;14766;51.380;13.762;2022-10-16T12:38:08;24.30;56.40
27266;DHT22;14766;51.380;13.762;2022-10-16T12:40:41;24.30;56.30
27266;DHT22;14766;51.380;13.762;2022-10-16T12:43:25;24.40;56.50
27266;DHT22;14766;51.380;13.762;2022-10-16T12:46:22;24.40;56.40
27266;DHT22;14766;51.380;13.762;2022-10-16T12:48:47;24.40;56.20
27266;DHT22;14766;51.380;13.762;2022-10-16T13:05:11;24.30;56.10
27266;DHT22;14766;51.380;13.762;2022-10-16T13:13:59;24.20;56.50
27266;DHT22;14766;51.380;13.762;2022-10-16T13:17:06;24.10;56.20
27266;DHT22;14766;51.380;13.762;2022-10-16T13:19:48;24.10;56.00
27266;DHT22;14766;51.380;13.762;2022-10-16T13:25:33;24.10;55.80
27266;DHT22;14766;51.380;13.762;2022-10-16T13:28:05;24.10;55.80
27266;DHT22;14766;51.380;13.762;2022-10-16T13:30:44;24.10;55.90
27266;DHT22;14766;51.380;13.762;2022-10-16T13:33:39;24.10;55.90
27266;DHT22;14766;51.380;13.762;2022-10-16T13:36:24;24.10;55.70
27266;DHT22;14766;51.380;13.762;2022-10-16T13:39:13;24.00;55.70
27266;DHT22;14766;51.380;13.762;2022-10-16T13:41:41;24.00;55.70
27266;DHT22;14766;51.380;13.762;2022-10-16T13:44:18;24.00;56.00
27266;DHT22;14766;51.380;13.762;2022-10-16T13:46:46;24.00;56.10
27266;DHT22;14766;51.380;13.762;2022-10-16T13:49:16;24.00;56.00
27266;DHT22;14766;51.380;13.762;2022-10-16T13:51:58;24.10;56.00
27266;DHT22;14766;51.380;13.762;2022-10-16T13:54:27;24.00;56.10
27266;DHT22;14766;51.380;13.762;2022-10-16T13:57:04;24.10;56.10
27266;DHT22;14766;51.380;13.762;2022-10-16T13:59:51;24.10;56.30
27266;DHT22;14766;51.380;13.762;2022-10-16T14:02:34;24.10;56.40
27266;DHT22;14766;51.380;13.762;2022-10-16T14:05:04;24.10;56.40
27266;DHT22;14766;51.380;13.762;2022-10-16T14:07:33;24.10;56.40
27266;DHT22;14766;51.380;13.762;2022-10-16T14:10:07;24.00;56.40
27266;DHT22;14766;51.380;13.762;2022-10-16T14:12:45;24.00;56.40
27266;DHT22;14766;51.380;13.762;2022-10-16T14:15:17;24.00;56.30
27266;DHT22;14766;51.380;13.762;2022-10-16T14:17:49;24.00;56.50
27266;DHT22;14766;51.380;13.762;2022-10-16T14:20:17;24.00;56.70
27266;DHT22;14766;51.380;13.762;2022-10-16T14:22:44;23.90;56.80
27266;DHT22;14766;51.380;13.762;2022-10-16T14:30:34;23.90;57.20
27266;DHT22;14766;51.380;13.762;2022-10-16T14:33:18;23.90;57.20
27266;DHT22;14766;51.380;13.762;2022-10-16T14:35:46;23.90;57.20
27266;DHT22;14766;51.380;13.762;2022-10-16T14:38:26;24.00;57.10
27266;DHT22;14766;51.380;13.762;2022-10-16T14:40:53;24.00;57.10
27266;DHT22;14766;51.380;13.762;2022-10-16T14:43:22;23.90;57.00
27266;DHT22;14766;51.380;13.762;2022-10-16T14:45:56;23.90;57.00
27266;DHT22;14766;51.380;13.762;2022-10-16T14:48:24;23.90;57.00
27266;DHT22;14766;51.380;13.762;2022-10-16T14:50:51;23.90;57.90
27266;DHT22;14766;51.380;13.762;2022-10-16T14:53:20;23.90;57.20
27266;DHT22;14766;51.380;13.762;2022-10-16T14:55:48;23.90;57.00
27266;DHT22;14766;51.380;13.762;2022-10-16T14:58:20;23.90;57.00
27266;DHT22;14766;51.380;13.762;2022-10-16T15:00:49;23.80;56.90
27266;DHT22;14766;51.380;13.762;2022-10-16T15:03:16;23.80;56.90
27266;DHT22;14766;51.380;13.762;2022-10-16T15:05:43;23.70;57.00
27266;DHT22;14766;51.380;13.762;2022-10-16T15:08:11;23.70;56.90
27266;DHT22;14766;51.380;13.762;2022-10-16T15:10:41;23.70;56.90
27266;DHT22;14766;51.380;13.762;2022-10-16T15:13:13;23.70;56.90
27266;DHT22;14766;51.380;13.762;2022-10-16T15:15:45;23.70;57.00
27266;DHT22;14766;51.380;13.762;2022-10-16T15:18:14;23.70;57.10
27266;DHT22;14766;51.380;13.762;2022-10-16T15:20:49;23.60;57.00
27266;DHT22;14766;51.380;13.762;2022-10-16T15:23:21;23.60;57.00
27266;DHT22;14766;51.380;13.762;2022-10-16T15:25:54;23.60;57.10
27266;DHT22;14766;51.380;13.762;2022-10-16T15:28:23;23.50;57.10
27266;DHT22;14766;51.380;13.762;2022-10-16T15:30:53;23.50;57.20
27266;DHT22;14766;51.380;13.762;2022-10-16T15:33:23;23.50;57.30
27266;DHT22;14766;51.380;13.762;2022-10-16T15:35:51;23.40;57.40
27266;DHT22;14766;51.380;13.762;2022-10-16T15:38:20;23.40;57.50
27266;DHT22;14766;51.380;13.762;2022-10-16T15:40:50;23.40;57.60
27266;DHT22;14766;51.380;13.762;2022-10-16T15:43:17;23.40;57.70
27266;DHT22;14766;51.380;13.762;2022-10-16T15:46:06;23.30;57.80
27266;DHT22;14766;51.380;13.762;2022-10-16T15:48:42;23.30;58.20
27266;DHT22;14766;51.380;13.762;2022-10-16T15:51:11;23.20;58.00
27266;DHT22;14766;51.380;13.762;2022-10-16T15:53:39;23.20;58.10
27266;DHT22;14766;51.380;13.762;2022-10-16T15:56:08;23.10;58.20
27266;DHT22;14766;51.380;13.762;2022-10-16T15:58:37;23.10;58.30
27266;DHT22;14766;51.380;13.762;2022-10-16T16:01:05;23.00;58.40
27266;DHT22;14766;51.380;13.762;2022-10-16T16:03:36;23.00;58.50
27266;DHT22;14766;51.380;13.762;2022-10-16T16:06:10;22.90;58.50
27266;DHT22;14766;51.380;13.762;2022-10-16T16:08:37;22.90;58.80
27266;DHT22;14766;51.380;13.762;2022-10-16T16:11:08;22.80;58.80
27266;DHT22;14766;51.380;13.762;2022-10-16T16:13:37;22.70;58.80
27266;DHT22;14766;51.380;13.762;2022-10-16T16:16:09;22.60;58.80
27266;DHT22;14766;51.380;13.762;2022-10-16T16:18:37;22.60;59.10
27266;DHT22;14766;51.380;13.762;2022-10-16T16:21:05;22.50;59.20
27266;DHT22;14766;51.380;13.762;2022-10-16T16:23:32;22.50;59.30
27266;DHT22;14766;51.380;13.762;2022-10-16T16:26:14;22.40;59.40
27266;DHT22;14766;51.380;13.762;2022-10-16T16:28:43;22.40;59.70
27266;DHT22;14766;51.380;13.762;2022-10-16T16:31:11;22.30;59.50
27266;DHT22;14766;51.380;13.762;2022-10-16T16:33:40;22.20;59.70
27266;DHT22;14766;51.380;13.762;2022-10-16T16:36:08;22.10;59.80
27266;DHT22;14766;51.380;13.762;2022-10-16T16:38:41;22.10;60.00
27266;DHT22;14766;51.380;13.762;2022-10-16T16:41:26;22.00;60.10
27266;DHT22;14766;51.380;13.762;2022-10-16T16:43:55;22.00;60.50
27266;DHT22;14766;51.380;13.762;2022-10-16T16:46:22;21.90;60.40
27266;DHT22;14766;51.380;13.762;2022-10-16T16:48:50;21.90;60.60
27266;DHT22;14766;51.380;13.762;2022-10-16T16:51:24;21.80;60.80
27266;DHT22;14766;51.380;13.762;2022-10-16T16:53:54;21.80;61.10
27266;DHT22;14766;51.380;13.762;2022-10-16T16:56:25;21.70;61.20
27266;DHT22;14766;51.380;13.762;2022-10-16T16:58:55;21.70;61.40
27266;DHT22;14766;51.380;13.762;2022-10-16T17:01:24;21.60;61.20
27266;DHT22;14766;51.380;13.762;2022-10-16T17:03:54;21.60;61.40
27266;DHT22;14766;51.380;13.762;2022-10-16T17:06:24;21.60;61.80
27266;DHT22;14766;51.380;13.762;2022-10-16T17:08:52;21.50;61.80
27266;DHT22;14766;51.380;13.762;2022-10-16T17:11:22;21.50;62.10
27266;DHT22;14766;51.380;13.762;2022-10-16T17:13:50;21.50;62.20
27266;DHT22;14766;51.380;13.762;2022-10-16T17:16:29;21.50;62.20
27266;DHT22;14766;51.380;13.762;2022-10-16T17:19:02;21.40;62.20
27266;DHT22;14766;51.380;13.762;2022-10-16T17:21:30;21.40;62.40
27266;DHT22;14766;51.380;13.762;2022-10-16T17:23:59;21.30;62.50
27266;DHT22;14766;51.380;13.762;2022-10-16T17:26:27;21.30;62.60
27266;DHT22;14766;51.380;13.762;2022-10-16T17:28:57;21.20;62.60
27266;DHT22;14766;51.380;13.762;2022-10-16T17:31:27;21.20;62.50
27266;DHT22;14766;51.380;13.762;2022-10-16T17:33:56;21.10;62.80
27266;DHT22;14766;51.380;13.762;2022-10-16T17:36:24;21.10;62.80
27266;DHT22;14766;51.380;13.762;2022-10-16T17:38:51;21.00;63.10
27266;DHT22;14766;51.380;13.762;2022-10-16T17:41:23;21.00;62.80
27266;DHT22;14766;51.380;13.762;2022-10-16T17:43:51;21.00;63.00
27266;DHT22;14766;51.380;13.762;2022-10-16T17:46:21;20.90;63.20
27266;DHT22;14766;51.380;13.762;2022-10-16T17:48:50;20.90;63.30
27266;DHT22;14766;51.380;13.762;2022-10-16T17:51:25;20.90;63.40
27266;DHT22;14766;51.380;13.762;2022-10-16T17:53:55;20.80;63.70
27266;DHT22;14766;51.380;13.762;2022-10-16T17:56:24;20.80;63.80
27266;DHT22;14766;51.380;13.762;2022-10-16T17:58:53;20.70;63.90
27266;DHT22;14766;51.380;13.762;2022-10-16T18:01:24;20.70;63.80